Flight Track Log - Related Links

Times and Time Zones

All times are in EDT time to prevent confusion due to time zone crossing. See the TAM3076 flight status page for this flight to view local times or setup timezone preferences in your user account.

Time Position Orientation Groundspeed Altitude Reporting Facility
EDT Latitude Longitude Course Direction KTS MPH feet Rate Location/Type
Sun 09:29:20 AM -22.7740 -43.1820 46° Northeast 191 220 1,100  Level FlightAware ADS-B
Sun 09:29:29 AM -22.7670 -43.1760 38° Northeast 206 237 1,400 2,069 Climbing FlightAware ADS-B
Sun 09:29:49 AM -22.7510 -43.1660 30° Northeast 218 251 2,100 2,700 Climbing FlightAware ADS-B
Sun 09:30:09 AM -22.7310 -43.1570 23° Northeast 220 253 3,200 3,286 Climbing FlightAware ADS-B
Sun 09:30:31 AM -22.7170 -43.1330 58° Northeast 217 250 4,400 3,000 Climbing FlightAware ADS-B
Sun 09:30:43 AM -22.7150 -43.1210 80° East 222 255 4,900 2,700 Climbing FlightAware ADS-B
Sun 09:30:51 AM -22.7100 -43.1140 52° Northeast 226 260 5,300 2,750 Climbing FlightAware ADS-B
Sun 09:31:07 AM -22.6980 -43.1010 45° Northeast 229 264 6,000 2,550 Climbing FlightAware ADS-B
Sun 09:31:31 AM -22.6770 -43.0850 35° Northeast 239 275 7,000 1,909 Climbing FlightAware ADS-B
Sun 09:31:51 AM -22.6570 -43.0690 36° Northeast 265 305 7,400 1,636 Climbing FlightAware ADS-B
Sun 09:32:15 AM -22.6340 -43.0480 40° Northeast 282 325 8,200 2,143 Climbing FlightAware ADS-B
Sun 09:32:33 AM -22.6170 -43.0320 41° Northeast 288 331 8,900 2,100 Climbing FlightAware ADS-B
Sun 09:32:55 AM -22.5930 -43.0090 42° Northeast 306 352 9,600 1,700 Climbing FlightAware ADS-B
Sun 09:33:33 AM -22.5520 -42.9700 41° Northeast 335 386 10,600 1,457 Climbing FlightAware ADS-B
Sun 09:34:05 AM -22.5120 -42.9320 41° Northeast 366 421 11,300 1,853 Climbing FlightAware ADS-B
Sun 09:34:41 AM -22.4650 -42.8870 42° Northeast 376 433 12,700 2,057 Climbing FlightAware ADS-B
Sun 09:35:15 AM -22.4190 -42.8430 41° Northeast 392 451 13,700 2,273 Climbing FlightAware ADS-B
Sun 09:35:47 AM -22.3780 -42.8030 42° Northeast 388 447 15,200 2,417 Climbing FlightAware ADS-B
Sun 09:36:27 AM -22.3220 -42.7500 41° Northeast 397 457 16,600 2,049 Climbing FlightAware ADS-B
Sun 09:37:09 AM -22.2630 -42.6940 41° Northeast 404 465 18,000 2,027 Climbing FlightAware ADS-B
Sun 09:37:41 AM -22.2190 -42.6520 41° Northeast 405 466 19,100 1,692 Climbing FlightAware ADS-B
Sun 09:38:27 AM -22.1540 -42.5900 41° Northeast 418 481 20,200 1,149 Climbing FlightAware ADS-B
Sun 09:39:15 AM -22.1180 -42.5510 45° Northeast 427 491 20,900 1,275 Climbing FlightAware ADS-B
Sun 09:39:47 AM -22.0770 -42.5000 49° Northeast 428 493 21,900 1,846 Climbing FlightAware ADS-B
Sun 09:40:20 AM -22.0360 -42.4490 49° Northeast 428 493 22,900 1,662 Climbing FlightAware ADS-B
Sun 09:40:52 AM -21.9910 -42.3930 49° Northeast 434 499 23,700 1,397 Climbing FlightAware ADS-B
Sun 09:41:33 AM -21.9400 -42.3300 49° Northeast 439 505 24,600 1,600 Climbing FlightAware ADS-B
Sun 09:42:07 AM -21.8590 -42.2300 49° Northeast 452 520 25,700 1,652 Climbing FlightAware ADS-B
Sun 09:42:42 AM -21.8130 -42.1740 49° Northeast 452 520 26,500 1,167 Climbing FlightAware ADS-B
Sun 09:43:19 AM -21.7610 -42.1100 49° Northeast 458 527 27,100 904 Climbing FlightAware ADS-B
Sun 09:43:55 AM -21.7090 -42.0480 48° Northeast 465 535 27,600 1,478 Climbing FlightAware ADS-B
Sun 09:44:28 AM -21.6630 -41.9900 50° Northeast 454 522 28,800 1,500 Climbing FlightAware ADS-B
Sun 09:44:59 AM -21.6200 -41.9390 48° Northeast 460 529 29,200 761 Climbing FlightAware ADS-B
Sun 09:45:39 AM -21.5640 -41.8710 48° Northeast 467 537 29,700 786 Climbing FlightAware ADS-B
Sun 09:46:23 AM -21.5050 -41.7990 49° Northeast 474 545 30,300 741 Climbing FlightAware ADS-B
Sun 09:47:00 AM -21.4510 -41.7330 49° Northeast 481 554 30,700 600 Climbing FlightAware ADS-B
Sun 09:47:33 AM -21.4070 -41.6800 48° Northeast 472 543 31,000 247 Climbing FlightAware ADS-B
Sun 09:48:13 AM -21.3460 -41.6060 48° Northeast 469 540 31,000  Level FlightAware ADS-B
Sun 09:49:02 AM -21.2790 -41.5250 48° Northeast 467 537 31,000 -143 Level FlightAware ADS-B
Sun 09:49:37 AM -21.2280 -41.4630 49° Northeast 468 539 30,800 -537 Descending FlightAware ADS-B
Sun 09:50:09 AM -21.1840 -41.4100 48° Northeast 473 544 30,400 -1,286 Descending FlightAware ADS-B
Sun 09:50:47 AM -21.1270 -41.3410 48° Northeast 479 551 29,300 -1,826 Descending FlightAware ADS-B
Sun 09:51:18 AM -21.0870 -41.2920 49° Northeast 476 548 28,300 -1,448 Descending FlightAware ADS-B
Sun 09:52:14 AM -21.0150 -41.2070 48° Northeast 471 542 27,200 -717 Descending FlightAware ADS-B
Sun 09:52:50 AM -20.9710 -41.1530 49° Northeast 471 542 27,200  Level FlightAware ADS-B
Sun 09:53:36 AM -20.9140 -41.0860 48° Northeast 471 542 27,200  Level FlightAware ADS-B
Sun 09:54:13 AM -20.8680 -41.0310 48° Northeast 471 542 27,200  Level FlightAware ADS-B
Sun 09:54:50 AM -20.8220 -40.9770 48° Northeast 471 542 27,200  Level FlightAware ADS-B
Sun 09:55:26 AM -20.7780 -40.9240 48° Northeast 471 542 27,200  Level FlightAware ADS-B
Sun 09:58:00 AM -20.6747 -40.7968 49° Northeast  Level Estimated
Sun 09:59:00 AM -20.6345 -40.7473 49° Northeast  Level Estimated
Sun 10:00:00 AM -20.5942 -40.6978 49° Northeast  Level Estimated
Sun 10:01:00 AM -20.5539 -40.6483 49° Northeast  Level Estimated
Sun 10:02:00 AM -20.5136 -40.5989 49° Northeast  Level Estimated
Sun 10:03:00 AM -20.4733 -40.5494 49° Northeast  Level Estimated
Sun 10:04:00 AM -20.4329 -40.5000 49° Northeast  Level Estimated
Sun 10:05:00 AM -20.3926 -40.4507 49° Northeast  Level Estimated
Sun 10:06:00 AM -20.3522 -40.4013 49° Northeast  Level Estimated
Sun 10:07:00 AM -20.3119 -40.3520 49° Northeast  Level Estimated
Sun 10:08:00 AM -20.2715 -40.3027 49° Northeast  Level Estimated
Sun 10:09:00 AM -20.2581 -40.2864 49° Northeast  Level Estimated
Sun 10:10:00 AM -20.2581 -40.2864 13° North  Level Estimated
Sun 10:11:00 AM -20.2581 -40.2864 13° North  Level Estimated
Sun 10:12:00 AM -20.2581 -40.2864 13° North  Level Estimated
Sun 10:13:00 AM -20.2581 -40.2864 13° North  Level Estimated
Sun 10:14:00 AM -20.2581 -40.2864 13° North  Level Estimated
Sun 10:15:00 AM -20.2581 -40.2864 13° North  Level Estimated
Sun 10:16:00 AM -20.2581 -40.2864 13° North  Level Estimated
Sun 10:17:00 AM -20.2581 -40.2864 13° North  Level Estimated
Sun 10:18:00 AM -20.2581 -40.2864 13° North  Level Estimated
Sun 10:19:00 AM -20.2581 -40.2864 13° North  Level Estimated
Sun 10:20:00 AM -20.2581 -40.2864 13° North  Level Estimated
Sun 10:21:00 AM -20.2581 -40.2864 13° North  Level Estimated
Sun 10:22:00 AM -20.2581 -40.2864 13° North  Level Estimated
Sun 10:23:00 AM -20.2581 -40.2864 13° North  Level Estimated
Sun 10:24:00 AM -20.2581 -40.2864 13° North  Level Estimated
Sun 10:25:00 AM -20.2581 -40.2864 13° North  Level Estimated
Sun 10:26:00 AM -20.2581 -40.2864 13° North  Level Estimated
Sun 10:27:00 AM -20.2581 -40.2864 13° North  Level Estimated
Sun 10:28:00 AM -20.2581 -40.2864 13° North  Level Estimated
Sun 10:29:00 AM -20.2581 -40.2864 13° North  Level Estimated
Sun 10:30:00 AM -20.2581 -40.2864 13° North  Level Estimated
Sun 10:31:00 AM -20.2581 -40.2864 13° North  Level Estimated
Sun 10:32:00 AM -20.2581 -40.2864 13° North  Level Estimated
Sun 10:33:00 AM -20.2581 -40.2864 13° North  Level Estimated
Sun 10:34:00 AM -20.2581 -40.2864 13° North  Level Estimated
Sun 10:35:00 AM -20.2581 -40.2864 13° North  Level Estimated
Sun 10:36:00 AM -20.2581 -40.2864 13° North  Level Estimated
Sun 10:37:00 AM -20.2581 -40.2864 13° North  Level Estimated
Sun 10:38:00 AM -20.2581 -40.2864 13° North  Level Estimated
Sun 10:39:00 AM -20.2581 -40.2864 13° North  Level Estimated
Sun 10:40:00 AM -20.2581 -40.2864 13° North  Level Estimated
Sun 10:41:00 AM -20.2581 -40.2864 13° North  Level Estimated
Sun 10:42:00 AM -20.2581 -40.2864 13° North  Level Estimated
Sun 10:43:00 AM -20.2581 -40.2864 13° North  Level Estimated
Sun 10:44:00 AM -20.2581 -40.2864 13° North  Level Estimated
Sun 10:45:00 AM -20.2581 -40.2864 13° North  Level Estimated

Login

Don't have an account? Register now (free) for customized features, flight alerts, and more!